Portada
METAR-TAF:

METAR-TAF

Aeroports :

La Grande-4, Quebec, Canadà

latitud: 53-45N, longitud: 073-40W, altitud: 306 m

Observació

L'informe es va fer fa 19 minuts, a les 07:07 UTC
Vent 4 kt del Sud-Oest
Temperatura 4°C
Humitat 93%
Pressió 1011 hPa
Visibilitat: 14.5 km
Cel ennuvolat a una alçada de 1100 ft
Cel cobert a una alçada de 5500 ft

METAR: CYAH 060707Z AUTO 22004KT 9SM BKN011 OVC055 04/03 A2985 RMK SLP123

Hora: 03:26 (07:26 UTC)

Pronòstic

L'informe es va fer fa 13 hores i 48 minuts, a les 17:38 UTC
Pronòstic vàlid del 05 a les 18 UTC al 05 a les 21 UTC
Vent 10 kt del Oest
Visibilitat: 10 km
Cel cobert a una alçada de 1000 ft
Temporalment
l' 05 a les 18 UTC al 05 a les 21 UTC
Núvols disperses a una alçada de 1000 ft
Cel cobert a una alçada de 2500 ft

TAF: CYAH 051738Z 0518/0521 26010KT P6SM OVC010 TEMPO 0518/0521 SCT010 OVC025 RMK FCST BASED ON AUTO OBS. NXT FCST WILL BE ISSUED AT 061045Z

Observacions i pronòstics meteorològics de més de 4000 aeroports (METAR i TAF).

Les estacions disponibles són els punts grocs i vermells al mapa.

Posi el ratolí al punt desitjat per veure el nom de l'estació.

Feu clic per veure les observacions i els pronòstics meteorològics.

Per canviar el mapa: feu clic els botons verds amb una creu de color negre per apropar; al botó verd amb un guió per allunyar la imatge; o en les fletxes verdes per a mapes adjacents.


METAR-TAF: